Anaktuvuk Pass Airport Anaktuvuk Pass US
ICAO: PAKP
IATA:
Category: Medium
Scheduled Services:

Elevation: 2102 ft
TransAlt. 18000 ft.

Airport Communications:
AWOS 3:135.75
ANCHORAGE CNTR:124.6
CTAF:122.8
DEADHORSE RDO:122.15

PAKP Zoom In..

If you have problems with the map follow the link
https://www.worldairports.se/pages/airport.php?
ICAO=PAKP

Runways:

(A) RW 02 length 4800 ft width 100 ft
---- / hdg 17

(B) RW 20 length 4800 ft width 100 ft
---- / hdg 197

Location; PAKP
Day. 12 / Time. 10.56 Zulu
* Altimeter: 29.59
* Temperature: -16° c. -3.2°f.
* Wind from: 230° Speed 04 kn.
Dewpoint: -18° c.
Visibility: 10 Statute Miles.
Clouds: Clear (automated report).

PAKP 121056Z AUTO 23004KT 10SM CLR M16/M18 A2959 RMK AO2 SLP088 T11611178 FZRANO


Wind From 230°
Speed 04 kn.

 
 
jpsmedia worldairports.se 2019   terms of use